createdAt,value
2024-02-17T00:01:50.668Z,5.88
2024-02-17T00:04:28.933Z,5.88
2024-02-17T00:07:00.989Z,5.85
2024-02-17T00:09:35.281Z,5.85
2024-02-17T00:12:14.240Z,5.83
2024-02-17T00:14:51.741Z,5.83
2024-02-17T00:17:29.070Z,5.82
2024-02-17T00:20:09.179Z,5.83
2024-02-17T00:22:46.393Z,5.83
2024-02-17T00:25:23.822Z,5.82
2024-02-17T00:28:00.724Z,5.78
2024-02-17T00:30:38.435Z,5.77
2024-02-17T00:33:16.017Z,5.72
2024-02-17T00:35:53.600Z,5.70
2024-02-17T00:38:31.526Z,5.67
2024-02-17T00:41:09.641Z,5.66
2024-02-17T00:43:39.915Z,5.68
2024-02-17T00:46:16.930Z,5.68
2024-02-17T00:48:48.571Z,5.67
2024-02-17T00:51:28.682Z,5.66
2024-02-17T00:54:06.326Z,5.66
2024-02-17T00:56:43.438Z,5.63
2024-02-17T00:59:21.885Z,5.64
2024-02-17T01:02:02.166Z,5.65
2024-02-17T01:04:40.883Z,5.64
2024-02-17T01:07:18.606Z,5.66
2024-02-17T01:09:59.341Z,5.68
2024-02-17T01:12:36.829Z,5.69
2024-02-17T01:15:14.277Z,5.71
2024-02-17T01:17:51.645Z,5.73
2024-02-17T01:20:29.676Z,5.76
2024-02-17T01:23:07.518Z,5.79
2024-02-17T01:25:38.373Z,5.79
2024-02-17T01:28:16.449Z,5.79
2024-02-17T01:30:53.307Z,5.78
2024-02-17T01:33:30.607Z,5.76
2024-02-17T01:36:16.259Z,5.76
2024-02-17T01:38:53.668Z,5.78
2024-02-17T01:41:30.339Z,5.82
2024-02-17T01:44:08.765Z,5.83
2024-02-17T01:46:41.251Z,5.82
2024-02-17T01:49:19.308Z,5.83
2024-02-17T01:51:57.003Z,5.85
2024-02-17T01:54:34.285Z,5.89
2024-02-17T01:57:09.865Z,5.95
2024-02-17T01:59:44.675Z,5.99
2024-02-17T02:02:18.211Z,6.00
2024-02-17T02:04:54.837Z,6.01
2024-02-17T02:07:31.507Z,6.04
2024-02-17T02:10:10.082Z,6.08
2024-02-17T02:12:48.042Z,6.10
2024-02-17T02:15:33.206Z,6.12
2024-02-17T02:18:18.548Z,6.15
2024-02-17T02:20:55.865Z,6.18
2024-02-17T02:23:33.597Z,6.21
2024-02-17T02:26:11.399Z,6.23
2024-02-17T02:28:48.593Z,6.25
2024-02-17T02:31:25.398Z,6.27
2024-02-17T02:34:02.889Z,6.31
2024-02-17T02:36:40.402Z,6.32
2024-02-17T02:39:17.973Z,6.34
2024-02-17T02:41:56.150Z,6.37
2024-02-17T02:44:33.695Z,6.40
2024-02-17T02:47:04.385Z,6.43
2024-02-17T02:49:38.678Z,6.46
2024-02-17T02:52:17.645Z,6.51
2024-02-17T02:54:54.855Z,6.55
2024-02-17T02:57:32.770Z,6.61
2024-02-17T03:00:12.105Z,6.64
2024-02-17T03:02:50.385Z,6.68
2024-02-17T03:05:28.852Z,6.71
2024-02-17T03:08:06.583Z,6.75
2024-02-17T03:10:44.186Z,6.80
2024-02-17T03:13:21.112Z,6.83
2024-02-17T03:15:58.830Z,6.86
2024-02-17T03:18:35.083Z,6.89
2024-02-17T03:21:05.941Z,6.94
2024-02-17T03:23:39.653Z,6.97
2024-02-17T03:26:15.578Z,7.00
2024-02-17T03:28:53.229Z,7.00
2024-02-17T03:31:30.280Z,7.02
2024-02-17T03:34:07.861Z,7.04
2024-02-17T03:36:45.090Z,7.05
2024-02-17T03:39:24.480Z,7.07
2024-02-17T03:42:01.376Z,7.09
2024-02-17T03:44:39.056Z,7.11
2024-02-17T03:47:16.181Z,7.10
2024-02-17T03:49:54.139Z,7.08
2024-02-17T03:52:34.354Z,7.12
2024-02-17T03:55:06.805Z,7.18
2024-02-17T03:57:41.031Z,7.21
2024-02-17T04:00:20.033Z,7.21
2024-02-17T04:02:51.959Z,7.22
2024-02-17T04:05:29.840Z,7.24
2024-02-17T04:08:07.346Z,7.28
2024-02-17T04:10:45.711Z,7.30
2024-02-17T04:13:22.996Z,7.29
2024-02-17T04:15:53.897Z,7.27
2024-02-17T04:18:25.981Z,7.30
2024-02-17T04:21:01.560Z,7.31
2024-02-17T04:23:39.254Z,7.29
2024-02-17T04:26:16.797Z,7.28
2024-02-17T04:28:53.535Z,7.28
2024-02-17T04:31:30.955Z,7.26
2024-02-17T04:34:09.026Z,7.21
2024-02-17T04:36:45.957Z,7.19
2024-02-17T04:39:23.233Z,7.21
2024-02-17T04:42:00.984Z,7.26
2024-02-17T04:44:37.862Z,7.29
2024-02-17T04:47:09.193Z,7.31
2024-02-17T04:49:42.500Z,7.34
2024-02-17T04:52:20.040Z,7.37
2024-02-17T04:54:56.690Z,7.38
2024-02-17T04:57:33.665Z,7.38
2024-02-17T05:00:08.628Z,7.37
2024-02-17T05:02:46.080Z,7.36
2024-02-17T05:05:23.777Z,7.35
2024-02-17T05:08:00.679Z,7.34
2024-02-17T05:10:38.648Z,7.36
2024-02-17T05:13:15.689Z,7.41
2024-02-17T05:15:46.566Z,7.44
2024-02-17T05:18:23.049Z,7.44
2024-02-17T05:21:01.281Z,7.42
2024-02-17T05:23:38.506Z,7.39
2024-02-17T05:26:17.272Z,7.34
2024-02-17T05:28:54.446Z,7.31
2024-02-17T05:31:35.657Z,7.33
2024-02-17T05:34:11.245Z,7.32
2024-02-17T05:36:49.485Z,7.28
2024-02-17T05:39:26.619Z,7.27
2024-02-17T05:42:03.224Z,7.29
2024-02-17T05:44:41.037Z,7.38
2024-02-17T05:47:18.214Z,7.47
2024-02-17T05:49:48.795Z,7.60
2024-02-17T05:52:24.208Z,7.75
2024-02-17T05:55:01.872Z,7.86
2024-02-17T05:57:39.091Z,8.00
2024-02-17T06:00:17.574Z,8.12
2024-02-17T06:02:55.329Z,8.23
2024-02-17T06:05:34.527Z,8.32
2024-02-17T06:08:13.040Z,8.40
2024-02-17T06:10:50.601Z,8.45
2024-02-17T06:13:28.017Z,8.49
2024-02-17T06:16:07.779Z,8.54
2024-02-17T06:19:04.676Z,8.58
2024-02-17T06:21:43.468Z,8.62
2024-02-17T06:24:21.739Z,8.67
2024-02-17T06:27:00.346Z,8.70
2024-02-17T06:29:38.365Z,8.73
2024-02-17T06:32:15.775Z,8.76
2024-02-17T06:34:53.250Z,8.78
2024-02-17T06:37:30.197Z,8.80
2024-02-17T06:40:08.000Z,8.83
2024-02-17T06:42:45.858Z,8.81
2024-02-17T06:45:23.352Z,8.88
2024-02-17T06:48:01.668Z,8.91
2024-02-17T06:50:32.161Z,8.96
2024-02-17T06:53:06.680Z,8.98
2024-02-17T06:55:45.850Z,9.00
2024-02-17T06:58:24.257Z,9.03
2024-02-17T07:01:01.563Z,9.06
2024-02-17T07:03:39.404Z,9.09
2024-02-17T07:06:20.687Z,9.11
2024-02-17T07:08:58.677Z,9.14
2024-02-17T07:11:36.562Z,9.14
2024-02-17T07:14:14.292Z,9.17
2024-02-17T07:16:52.072Z,9.19
2024-02-17T07:19:30.456Z,9.23
2024-02-17T07:22:10.252Z,9.25
2024-02-17T07:24:50.406Z,9.29
2024-02-17T07:27:29.446Z,9.31
2024-02-17T07:30:08.804Z,9.35
2024-02-17T07:32:46.912Z,9.35
2024-02-17T07:35:26.288Z,9.36
2024-02-17T07:38:04.058Z,9.38
2024-02-17T07:40:43.301Z,9.41
2024-02-17T07:43:22.707Z,9.43
2024-02-17T07:45:53.188Z,9.46
2024-02-17T07:48:28.615Z,9.48
2024-02-17T07:51:07.531Z,9.49
2024-02-17T07:53:45.699Z,9.53
2024-02-17T07:56:25.164Z,9.56
2024-02-17T07:59:03.040Z,9.61
2024-02-17T08:01:40.475Z,9.61
2024-02-17T08:04:18.636Z,9.60
2024-02-17T08:06:56.828Z,9.63
2024-02-17T08:09:34.986Z,9.65
2024-02-17T08:12:13.943Z,9.62
2024-02-17T08:14:54.059Z,9.72
2024-02-17T08:17:31.727Z,9.73
2024-02-17T08:20:10.938Z,9.77
2024-02-17T08:22:49.831Z,9.80
2024-02-17T08:25:29.297Z,9.82
2024-02-17T08:28:06.780Z,9.82
2024-02-17T08:30:44.447Z,9.82
2024-02-17T08:33:21.909Z,9.85
2024-02-17T08:35:52.503Z,9.89
2024-02-17T08:38:28.978Z,9.92
2024-02-17T08:41:05.805Z,9.95
2024-02-17T08:43:43.453Z,9.98
2024-02-17T08:46:20.740Z,10.03
2024-02-17T08:48:57.422Z,10.06
2024-02-17T08:51:35.225Z,10.08
2024-02-17T08:54:18.372Z,10.08
2024-02-17T08:56:55.931Z,10.06
2024-02-17T08:59:33.966Z,10.12
2024-02-17T09:02:19.764Z,10.15
2024-02-17T09:04:57.153Z,10.16
2024-02-17T09:07:35.187Z,10.17
2024-02-17T09:10:18.180Z,10.24
2024-02-17T09:12:55.502Z,10.27
2024-02-17T09:15:33.104Z,10.31
2024-02-17T09:18:11.045Z,10.35
2024-02-17T09:20:48.858Z,10.36
2024-02-17T09:23:35.494Z,10.34
2024-02-17T09:26:12.833Z,10.37
2024-02-17T09:28:50.837Z,10.40
2024-02-17T09:31:28.814Z,10.34
2024-02-17T09:34:07.325Z,10.32
2024-02-17T09:36:45.624Z,10.33
2024-02-17T09:39:23.656Z,10.31
2024-02-17T09:41:54.864Z,10.27
2024-02-17T09:44:31.220Z,10.26
2024-02-17T09:47:09.543Z,10.27
2024-02-17T09:49:48.106Z,10.30
2024-02-17T09:52:25.846Z,10.31
2024-02-17T09:55:03.543Z,10.30
2024-02-17T09:57:47.453Z,10.30
2024-02-17T10:00:32.208Z,10.29
2024-02-17T10:03:11.704Z,10.32
2024-02-17T10:05:49.021Z,10.31
2024-02-17T10:08:31.329Z,10.30
2024-02-17T10:11:12.927Z,10.32
2024-02-17T10:14:04.912Z,10.37
2024-02-17T10:16:35.244Z,10.39
2024-02-17T10:19:06.163Z,10.41
2024-02-17T10:21:48.012Z,10.42
2024-02-17T10:24:26.707Z,10.41
2024-02-17T10:27:03.600Z,10.41
2024-02-17T10:29:40.582Z,10.44
2024-02-17T10:32:19.968Z,10.46
2024-02-17T10:34:57.773Z,10.46
2024-02-17T10:37:36.694Z,10.47
2024-02-17T10:40:15.697Z,10.46
2024-02-17T10:42:53.363Z,10.48
2024-02-17T10:45:30.965Z,10.48
2024-02-17T10:48:11.886Z,10.50
2024-02-17T10:50:51.964Z,10.53
2024-02-17T10:53:49.279Z,10.52
2024-02-17T10:56:27.464Z,10.51
2024-02-17T10:58:59.427Z,10.53
2024-02-17T11:01:38.598Z,10.57
2024-02-17T11:04:17.363Z,10.58
2024-02-17T11:06:56.136Z,10.57
2024-02-17T11:09:34.754Z,10.58
2024-02-17T11:12:36.677Z,10.60
2024-02-17T11:15:13.871Z,10.67
2024-02-17T11:17:56.811Z,10.70
2024-02-17T11:20:34.928Z,10.79
2024-02-17T11:23:13.978Z,10.91
2024-02-17T11:25:53.643Z,11.12
2024-02-17T11:28:33.330Z,11.28
2024-02-17T11:31:09.580Z,11.44
2024-02-17T11:33:54.507Z,11.53
2024-02-17T11:36:25.803Z,11.58
2024-02-17T11:39:04.665Z,11.67
2024-02-17T11:41:42.372Z,11.75
2024-02-17T11:44:20.305Z,11.80
2024-02-17T11:46:57.861Z,11.79
2024-02-17T11:49:45.232Z,11.80
2024-02-17T11:52:23.118Z,11.80
2024-02-17T11:55:00.639Z,11.83
2024-02-17T11:57:40.946Z,11.91
2024-02-17T12:00:19.732Z,12.04
2024-02-17T12:03:01.025Z,12.10
2024-02-17T12:05:37.673Z,12.15
2024-02-17T12:08:18.433Z,12.26
2024-02-17T12:10:57.116Z,12.36
2024-02-17T12:13:36.020Z,12.37
2024-02-17T12:16:17.569Z,12.40
2024-02-17T12:18:56.095Z,12.41
2024-02-17T12:21:34.998Z,12.34
2024-02-17T12:24:14.263Z,12.27
2024-02-17T12:26:53.756Z,12.15
2024-02-17T12:29:32.309Z,12.08
2024-02-17T12:32:21.125Z,12.05
2024-02-17T12:34:58.795Z,12.02
2024-02-17T12:37:42.140Z,12.01
2024-02-17T12:40:25.290Z,11.98
2024-02-17T12:43:03.359Z,11.95
2024-02-17T12:45:36.305Z,11.90
2024-02-17T12:48:15.783Z,11.90
2024-02-17T12:50:55.181Z,11.86
2024-02-17T12:53:39.079Z,11.89
2024-02-17T12:56:21.394Z,11.98
2024-02-17T12:59:02.642Z,12.16
2024-02-17T13:01:33.505Z,12.38
2024-02-17T13:04:13.870Z,12.48
2024-02-17T13:06:52.524Z,12.51
2024-02-17T13:09:32.112Z,12.53
2024-02-17T13:12:02.965Z,12.49
2024-02-17T13:14:38.409Z,12.45
2024-02-17T13:17:16.442Z,12.38
2024-02-17T13:19:54.342Z,12.38
2024-02-17T13:22:32.428Z,12.40
2024-02-17T13:25:16.081Z,12.42
2024-02-17T13:27:54.631Z,12.35
2024-02-17T13:30:33.260Z,12.21
2024-02-17T13:33:12.891Z,12.12
2024-02-17T13:35:51.013Z,12.06
2024-02-17T13:38:30.855Z,12.04
2024-02-17T13:41:08.373Z,12.03
2024-02-17T13:43:49.640Z,12.01
2024-02-17T13:46:30.086Z,12.02
2024-02-17T13:49:12.023Z,12.00
2024-02-17T13:51:50.334Z,11.88
2024-02-17T13:54:28.369Z,11.81
2024-02-17T13:57:06.931Z,11.77
2024-02-17T13:59:46.807Z,11.71
2024-02-17T14:02:28.480Z,11.69
2024-02-17T14:05:07.006Z,11.67
2024-02-17T14:07:44.736Z,11.62
2024-02-17T14:10:21.892Z,11.59
2024-02-17T14:13:00.698Z,11.51
2024-02-17T14:15:38.279Z,11.42
2024-02-17T14:18:16.524Z,11.30
2024-02-17T14:20:47.128Z,11.18
2024-02-17T14:23:21.089Z,11.13
2024-02-17T14:25:59.893Z,11.12
2024-02-17T14:28:31.945Z,11.10
2024-02-17T14:31:10.858Z,11.11
2024-02-17T14:33:48.456Z,11.13
2024-02-17T14:36:25.806Z,11.14
2024-02-17T14:39:02.856Z,11.19
2024-02-17T14:41:40.524Z,11.17
2024-02-17T14:44:18.038Z,11.12
2024-02-17T14:46:55.041Z,11.09
2024-02-17T14:49:33.290Z,11.09
2024-02-17T14:52:04.224Z,11.06
2024-02-17T14:54:44.159Z,11.03
2024-02-17T14:57:22.166Z,10.97
2024-02-17T15:00:00.211Z,10.91
2024-02-17T15:02:37.267Z,10.80
2024-02-17T15:05:15.453Z,10.68
2024-02-17T15:07:52.715Z,10.58
2024-02-17T15:10:32.020Z,10.47
2024-02-17T15:13:10.219Z,10.27
2024-02-17T15:15:50.491Z,10.09
2024-02-17T15:18:30.128Z,9.98
2024-02-17T15:21:07.465Z,9.92
2024-02-17T15:23:47.848Z,9.83
2024-02-17T15:26:27.061Z,9.75
2024-02-17T15:29:05.514Z,9.66
2024-02-17T15:31:50.275Z,9.54
2024-02-17T15:34:27.471Z,9.43
2024-02-17T15:37:05.306Z,9.36
2024-02-17T15:39:44.054Z,9.26
2024-02-17T15:42:23.767Z,9.20
2024-02-17T15:45:01.535Z,9.11
2024-02-17T15:47:39.494Z,8.99
2024-02-17T15:50:17.297Z,8.92
2024-02-17T15:52:55.173Z,8.88
2024-02-17T15:55:26.742Z,8.84
2024-02-17T15:58:03.116Z,8.77
2024-02-17T16:00:41.236Z,8.73
2024-02-17T16:03:12.501Z,8.66
2024-02-17T16:05:50.744Z,8.63
2024-02-17T16:08:28.130Z,8.59
2024-02-17T16:11:05.772Z,8.56
2024-02-17T16:13:46.642Z,8.57
2024-02-17T16:16:29.891Z,8.53
2024-02-17T16:19:09.979Z,8.49
2024-02-17T16:21:49.113Z,8.48
2024-02-17T16:24:27.318Z,8.48
2024-02-17T16:27:04.661Z,8.49
2024-02-17T16:29:42.470Z,8.46
2024-02-17T16:32:20.793Z,8.43
2024-02-17T16:34:58.969Z,8.38
2024-02-17T16:37:36.542Z,8.35
2024-02-17T16:40:09.523Z,8.38
2024-02-17T16:42:45.245Z,8.35
2024-02-17T16:45:22.536Z,8.31
2024-02-17T16:47:59.792Z,8.25
2024-02-17T16:50:38.116Z,8.23
2024-02-17T16:53:19.231Z,8.15
2024-02-17T16:55:57.335Z,8.10
2024-02-17T16:58:35.846Z,8.09
2024-02-17T17:01:13.777Z,8.04
2024-02-17T17:03:51.394Z,7.98
2024-02-17T17:06:29.317Z,7.98
2024-02-17T17:09:07.931Z,7.95
2024-02-17T17:11:46.129Z,7.97
2024-02-17T17:14:23.723Z,7.95
2024-02-17T17:17:01.647Z,7.95
2024-02-17T17:19:38.867Z,7.96
2024-02-17T17:22:47.660Z,7.90
2024-02-17T17:25:26.276Z,7.88
2024-02-17T17:28:04.727Z,7.83
2024-02-17T17:30:42.155Z,7.80
2024-02-17T17:33:20.612Z,7.78
2024-02-17T17:35:58.565Z,7.78
2024-02-17T17:38:35.903Z,7.76
2024-02-17T17:41:13.806Z,7.76
2024-02-17T17:43:52.832Z,7.75
2024-02-17T17:46:30.793Z,7.76
2024-02-17T17:49:11.107Z,7.76
2024-02-17T17:51:49.542Z,7.72
2024-02-17T17:54:27.618Z,7.70
2024-02-17T17:57:04.811Z,7.66
2024-02-17T17:59:42.252Z,7.62
2024-02-17T18:02:21.286Z,7.58
2024-02-17T18:04:52.220Z,7.56
2024-02-17T18:07:28.957Z,7.54
2024-02-17T18:10:06.483Z,7.53
2024-02-17T18:12:45.827Z,7.47
2024-02-17T18:15:24.265Z,7.41
2024-02-17T18:18:02.987Z,7.38
2024-02-17T18:20:40.742Z,7.33
2024-02-17T18:23:26.318Z,7.28
2024-02-17T18:26:04.861Z,7.26
2024-02-17T18:28:43.295Z,7.24
2024-02-17T18:31:18.286Z,7.23
2024-02-17T18:33:57.328Z,7.20
2024-02-17T18:36:35.286Z,7.20
2024-02-17T18:39:14.287Z,7.16
2024-02-17T18:41:52.044Z,7.11
2024-02-17T18:44:29.903Z,7.05
2024-02-17T18:47:07.799Z,7.02
2024-02-17T18:49:46.646Z,6.97
2024-02-17T18:52:29.710Z,6.96
2024-02-17T18:55:07.853Z,6.90
2024-02-17T18:57:45.879Z,6.88
2024-02-17T19:00:24.779Z,6.87
2024-02-17T19:03:03.223Z,6.85
2024-02-17T19:05:34.938Z,6.85
2024-02-17T19:08:09.144Z,6.85
2024-02-17T19:10:49.461Z,6.85
2024-02-17T19:13:27.310Z,6.82
2024-02-17T19:16:04.286Z,6.77
2024-02-17T19:18:41.921Z,6.81
2024-02-17T19:21:19.655Z,6.79
2024-02-17T19:23:56.791Z,6.76
2024-02-17T19:26:35.312Z,6.76
2024-02-17T19:29:12.833Z,6.75
2024-02-17T19:31:50.148Z,6.72
2024-02-17T19:34:28.321Z,6.72
2024-02-17T19:37:05.147Z,6.74
2024-02-17T19:39:36.635Z,6.76
2024-02-17T19:42:11.733Z,6.76
2024-02-17T19:44:49.521Z,6.76
2024-02-17T19:47:27.168Z,6.77
2024-02-17T19:50:05.149Z,6.77
2024-02-17T19:52:42.973Z,6.74
2024-02-17T19:55:20.481Z,6.71
2024-02-17T19:57:57.915Z,6.70
2024-02-17T20:00:35.907Z,6.71
2024-02-17T20:03:14.400Z,6.64
2024-02-17T20:05:51.954Z,6.60
2024-02-17T20:08:28.883Z,6.54
2024-02-17T20:11:07.388Z,6.52
2024-02-17T20:13:47.844Z,6.50
2024-02-17T20:16:37.379Z,6.46
2024-02-17T20:19:15.668Z,6.41
2024-02-17T20:21:54.131Z,6.38
2024-02-17T20:24:31.709Z,6.34
2024-02-17T20:27:10.333Z,6.32
2024-02-17T20:29:48.348Z,6.31
2024-02-17T20:32:25.667Z,6.28
2024-02-17T20:35:03.812Z,6.27
2024-02-17T20:37:35.041Z,6.26
2024-02-17T20:40:14.261Z,6.25
2024-02-17T20:42:51.167Z,6.22
2024-02-17T20:45:29.419Z,6.22
2024-02-17T20:48:08.540Z,6.15
2024-02-17T20:50:46.029Z,6.12
2024-02-17T20:53:23.969Z,6.10
2024-02-17T20:56:01.841Z,6.05
2024-02-17T20:58:39.534Z,5.99
2024-02-17T21:01:18.231Z,5.98
2024-02-17T21:03:56.226Z,5.84
2024-02-17T21:06:34.514Z,5.79
2024-02-17T21:09:12.899Z,5.72
2024-02-17T21:11:51.169Z,5.66
2024-02-17T21:14:28.443Z,5.58
2024-02-17T21:17:08.946Z,5.53
2024-02-17T21:19:49.703Z,5.49
2024-02-17T21:22:28.282Z,5.43
2024-02-17T21:25:00.703Z,5.37
2024-02-17T21:27:34.903Z,5.24
2024-02-17T21:30:13.319Z,5.12
2024-02-17T21:32:51.286Z,5.04
2024-02-17T21:35:29.119Z,4.87
2024-02-17T21:38:06.825Z,4.83
2024-02-17T21:40:44.647Z,4.79
2024-02-17T21:43:23.346Z,4.79
2024-02-17T21:46:01.049Z,4.76
2024-02-17T21:48:38.732Z,4.72
2024-02-17T21:51:23.178Z,4.78
2024-02-17T21:54:00.314Z,4.73
2024-02-17T21:56:37.897Z,4.74
2024-02-17T21:59:15.484Z,4.67
2024-02-17T22:01:58.666Z,4.66
2024-02-17T22:04:44.913Z,4.65
2024-02-17T22:07:22.699Z,4.61
2024-02-17T22:10:00.630Z,4.63
2024-02-17T22:12:38.001Z,4.63
2024-02-17T22:15:15.865Z,4.63
2024-02-17T22:17:53.672Z,4.57
2024-02-17T22:20:31.309Z,4.55
2024-02-17T22:23:10.995Z,4.50
2024-02-17T22:25:53.563Z,4.49
2024-02-17T22:28:33.587Z,4.49
2024-02-17T22:31:12.664Z,4.53
2024-02-17T22:33:43.667Z,4.46
2024-02-17T22:36:16.287Z,4.40
2024-02-17T22:38:47.462Z,4.39
2024-02-17T22:41:26.796Z,4.31
2024-02-17T22:44:05.240Z,4.28
2024-02-17T22:46:39.274Z,4.29
2024-02-17T22:49:19.242Z,4.19
2024-02-17T22:51:57.236Z,4.16
2024-02-17T22:54:35.487Z,4.11
2024-02-17T22:57:13.008Z,3.99
2024-02-17T22:59:51.769Z,3.95
2024-02-17T23:02:31.552Z,3.93
2024-02-17T23:05:02.216Z,3.89
2024-02-17T23:07:36.971Z,3.85
2024-02-17T23:10:15.396Z,3.86
2024-02-17T23:12:53.189Z,3.89
2024-02-17T23:15:30.737Z,3.89
2024-02-17T23:18:09.698Z,3.88
2024-02-17T23:20:47.611Z,3.86
2024-02-17T23:23:26.654Z,3.90
2024-02-17T23:26:04.310Z,3.91
2024-02-17T23:28:41.718Z,3.93
2024-02-17T23:31:22.159Z,3.97
2024-02-17T23:34:00.114Z,3.98
2024-02-17T23:36:37.359Z,3.94
2024-02-17T23:39:16.279Z,3.94
2024-02-17T23:41:53.812Z,3.93
2024-02-17T23:44:24.028Z,3.88
2024-02-17T23:46:56.096Z,3.80
2024-02-17T23:49:33.482Z,3.75
2024-02-17T23:52:11.914Z,3.70
2024-02-17T23:54:50.116Z,3.67
2024-02-17T23:57:28.855Z,3.67
